This is the latest recevied weather packets stored in our database for station/object IU2EVW-3. If no packets are shown the sender has not sent any weather packets the latest 10 day(s).
| Time | Temp. | Humidity | Pressure | Rain* | Wind** | Luminosity | Snow |
|---|---|---|---|---|---|---|---|
| 1777216690 | 25° C | 37% | 1016.1 hPa | - | - | - | - |
| 1777215489 | 25.56° C | 37% | 1016.1 hPa | - | - | - | - |
| 1777214288 | 25.56° C | 36% | 1016.2 hPa | - | - | - | - |
| 1777214231 | 25.56° C | 37% | 1016.2 hPa | - | - | - | - |
| 1777213030 | 25.56° C | 38% | 1016.3 hPa | - | - | - | - |
| 1777212056 | 25.56° C | 37% | 1016.3 hPa | - | - | - | - |
| 1777210855 | 25.56° C | 37% | 1016.5 hPa | - | - | - | - |
| 1777210794 | 25.56° C | 37% | 1016.5 hPa | - | - | - | - |
| 1777210752 | 25.56° C | 37% | 1016.5 hPa | - | - | - | - |
| 1777210621 | 25.56° C | 37% | 1016.5 hPa | - | - | - | - |
| 1777210576 | 26.11° C | 37% | 1016.5 hPa | - | - | - | - |
| 1777210448 | 26.11° C | 37% | 1016.5 hPa | - | - | - | - |
| 1777210406 | 26.11° C | 37% | 1016.5 hPa | - | - | - | - |
| 1777210364 | 26.11° C | 37% | 1016.5 hPa | - | - | - | - |
| 1777210313 | 26.11° C | 37% | 1016.6 hPa | - | - | - | - |
| 1777209111 | 25° C | 41% | 1016.7 hPa | - | - | - | - |
| 1777207910 | 23.89° C | 41% | 1017 hPa | - | - | - | - |
| 1777207161 | 23.89° C | 43% | 1017 hPa | - | - | - | - |
| 1777205959 | 23.33° C | 44% | 1017.2 hPa | - | - | - | - |
| 1777204758 | 22.78° C | 47% | 1017.3 hPa | - | - | - | - |
| 1777203560 | 22.22° C | 47% | 1017.5 hPa | - | - | - | - |
| 1777203511 | 22.22° C | 47% | 1017.5 hPa | - | - | - | - |
| 1777203461 | 22.22° C | 47% | 1017.5 hPa | - | - | - | - |
| 1777202260 | 21.67° C | 49% | 1017.8 hPa | - | - | - | - |
| 1777201059 | 20.56° C | 52% | 1018 hPa | - | - | - | - |
* Rain since midnight (hover to see other rain measurements)
** Current wind speed in m/s (hover to see current wind gust speed)